sensor_id;sensor_type;location;lat;lon;timestamp;P1;durP1;ratioP1;P2;durP2;ratioP2
16015;SDS011;8112;53.592;10.184;2023-04-05T00:04:20;6.63;;;4.13;;
16015;SDS011;8112;53.592;10.184;2023-04-05T00:09:23;5.70;;;4.00;;
16015;SDS011;8112;53.592;10.184;2023-04-05T00:14:25;5.67;;;3.80;;
16015;SDS011;8112;53.592;10.184;2023-04-05T00:19:28;7.07;;;3.77;;
16015;SDS011;8112;53.592;10.184;2023-04-05T00:24:32;5.47;;;3.80;;
16015;SDS011;8112;53.592;10.184;2023-04-05T00:29:38;4.63;;;3.83;;
16015;SDS011;8112;53.592;10.184;2023-04-05T00:34:41;3.53;;;3.07;;
16015;SDS011;8112;53.592;10.184;2023-04-05T00:39:43;5.97;;;3.60;;
16015;SDS011;8112;53.592;10.184;2023-04-05T00:44:45;5.83;;;3.83;;
16015;SDS011;8112;53.592;10.184;2023-04-05T00:49:48;3.30;;;2.93;;
16015;SDS011;8112;53.592;10.184;2023-04-05T00:54:50;5.77;;;3.73;;
16015;SDS011;8112;53.592;10.184;2023-04-05T00:59:53;4.87;;;3.93;;
16015;SDS011;8112;53.592;10.184;2023-04-05T01:05:01;5.67;;;3.50;;
16015;SDS011;8112;53.592;10.184;2023-04-05T01:10:08;5.77;;;3.87;;
16015;SDS011;8112;53.592;10.184;2023-04-05T01:15:12;5.30;;;3.70;;
16015;SDS011;8112;53.592;10.184;2023-04-05T01:20:15;4.67;;;3.60;;
16015;SDS011;8112;53.592;10.184;2023-04-05T01:25:21;5.33;;;3.90;;
16015;SDS011;8112;53.592;10.184;2023-04-05T01:30:38;6.37;;;3.73;;
16015;SDS011;8112;53.592;10.184;2023-04-05T01:35:49;6.80;;;4.40;;
16015;SDS011;8112;53.592;10.184;2023-04-05T01:40:53;6.83;;;4.53;;
16015;SDS011;8112;53.592;10.184;2023-04-05T01:45:56;5.43;;;4.13;;
16015;SDS011;8112;53.592;10.184;2023-04-05T01:50:58;7.93;;;4.43;;
16015;SDS011;8112;53.592;10.184;2023-04-05T01:56:00;8.27;;;4.50;;
16015;SDS011;8112;53.592;10.184;2023-04-05T02:01:03;7.40;;;3.90;;
16015;SDS011;8112;53.592;10.184;2023-04-05T02:06:05;5.53;;;3.70;;
16015;SDS011;8112;53.592;10.184;2023-04-05T02:11:07;7.63;;;4.17;;
16015;SDS011;8112;53.592;10.184;2023-04-05T02:16:11;5.00;;;3.80;;
16015;SDS011;8112;53.592;10.184;2023-04-05T02:21:13;6.60;;;3.80;;
16015;SDS011;8112;53.592;10.184;2023-04-05T02:26:16;5.53;;;3.63;;
16015;SDS011;8112;53.592;10.184;2023-04-05T02:31:19;5.83;;;3.83;;
16015;SDS011;8112;53.592;10.184;2023-04-05T02:36:21;5.87;;;3.87;;
16015;SDS011;8112;53.592;10.184;2023-04-05T02:41:23;4.77;;;3.20;;
16015;SDS011;8112;53.592;10.184;2023-04-05T02:46:26;4.37;;;3.60;;
16015;SDS011;8112;53.592;10.184;2023-04-05T02:51:28;5.70;;;3.70;;
16015;SDS011;8112;53.592;10.184;2023-04-05T02:56:34;8.13;;;3.77;;
16015;SDS011;8112;53.592;10.184;2023-04-05T03:01:42;6.40;;;3.83;;
16015;SDS011;8112;53.592;10.184;2023-04-05T03:06:52;6.00;;;3.93;;
16015;SDS011;8112;53.592;10.184;2023-04-05T03:11:57;4.90;;;3.87;;
16015;SDS011;8112;53.592;10.184;2023-04-05T03:17:00;5.17;;;4.00;;
16015;SDS011;8112;53.592;10.184;2023-04-05T03:22:09;5.10;;;4.20;;
16015;SDS011;8112;53.592;10.184;2023-04-05T03:27:12;5.07;;;3.83;;
16015;SDS011;8112;53.592;10.184;2023-04-05T03:32:34;6.77;;;4.43;;
16015;SDS011;8112;53.592;10.184;2023-04-05T03:37:47;7.43;;;4.37;;
16015;SDS011;8112;53.592;10.184;2023-04-05T03:42:49;8.93;;;5.20;;
16015;SDS011;8112;53.592;10.184;2023-04-05T03:47:52;8.00;;;4.63;;
16015;SDS011;8112;53.592;10.184;2023-04-05T03:52:54;5.10;;;4.00;;
16015;SDS011;8112;53.592;10.184;2023-04-05T03:57:57;7.50;;;4.40;;
16015;SDS011;8112;53.592;10.184;2023-04-05T04:03:06;7.60;;;4.20;;
16015;SDS011;8112;53.592;10.184;2023-04-05T04:08:11;6.27;;;3.87;;
16015;SDS011;8112;53.592;10.184;2023-04-05T04:13:13;5.73;;;3.90;;
16015;SDS011;8112;53.592;10.184;2023-04-05T04:18:16;7.43;;;4.30;;
16015;SDS011;8112;53.592;10.184;2023-04-05T04:23:37;4.57;;;4.07;;
16015;SDS011;8112;53.592;10.184;2023-04-05T04:29:17;7.80;;;4.63;;
16015;SDS011;8112;53.592;10.184;2023-04-05T04:34:35;6.30;;;5.20;;
16015;SDS011;8112;53.592;10.184;2023-04-05T04:39:49;7.33;;;4.67;;
16015;SDS011;8112;53.592;10.184;2023-04-05T04:45:12;7.13;;;4.80;;
16015;SDS011;8112;53.592;10.184;2023-04-05T04:50:21;7.67;;;4.43;;
16015;SDS011;8112;53.592;10.184;2023-04-05T04:55:23;7.70;;;4.80;;
16015;SDS011;8112;53.592;10.184;2023-04-05T05:00:26;9.63;;;5.40;;
16015;SDS011;8112;53.592;10.184;2023-04-05T05:05:30;8.10;;;5.03;;
16015;SDS011;8112;53.592;10.184;2023-04-05T05:10:32;6.37;;;4.73;;
16015;SDS011;8112;53.592;10.184;2023-04-05T05:15:38;8.33;;;4.60;;
16015;SDS011;8112;53.592;10.184;2023-04-05T05:20:42;7.57;;;4.37;;
16015;SDS011;8112;53.592;10.184;2023-04-05T05:25:44;7.03;;;5.20;;
16015;SDS011;8112;53.592;10.184;2023-04-05T05:30:48;7.57;;;5.23;;
16015;SDS011;8112;53.592;10.184;2023-04-05T05:35:51;7.73;;;6.10;;
16015;SDS011;8112;53.592;10.184;2023-04-05T05:40:56;7.60;;;5.53;;
16015;SDS011;8112;53.592;10.184;2023-04-05T05:45:59;8.90;;;5.90;;
16015;SDS011;8112;53.592;10.184;2023-04-05T05:51:03;8.13;;;5.83;;
16015;SDS011;8112;53.592;10.184;2023-04-05T05:56:09;9.40;;;5.27;;
16015;SDS011;8112;53.592;10.184;2023-04-05T06:01:10;4.97;;;4.37;;
16015;SDS011;8112;53.592;10.184;2023-04-05T06:06:17;5.77;;;4.67;;
16015;SDS011;8112;53.592;10.184;2023-04-05T06:11:20;5.97;;;4.70;;
16015;SDS011;8112;53.592;10.184;2023-04-05T06:16:22;8.87;;;5.00;;
16015;SDS011;8112;53.592;10.184;2023-04-05T06:21:26;5.73;;;4.53;;
16015;SDS011;8112;53.592;10.184;2023-04-05T06:26:27;9.40;;;5.23;;
16015;SDS011;8112;53.592;10.184;2023-04-05T06:31:30;6.63;;;4.80;;
16015;SDS011;8112;53.592;10.184;2023-04-05T06:36:34;8.37;;;5.63;;
16015;SDS011;8112;53.592;10.184;2023-04-05T06:41:36;6.87;;;5.50;;
16015;SDS011;8112;53.592;10.184;2023-04-05T06:46:38;7.03;;;5.20;;
16015;SDS011;8112;53.592;10.184;2023-04-05T06:51:41;7.63;;;5.37;;
16015;SDS011;8112;53.592;10.184;2023-04-05T06:56:42;8.13;;;6.13;;
16015;SDS011;8112;53.592;10.184;2023-04-05T07:01:44;9.00;;;5.77;;
16015;SDS011;8112;53.592;10.184;2023-04-05T07:06:47;8.73;;;6.33;;
16015;SDS011;8112;53.592;10.184;2023-04-05T07:11:49;11.93;;;6.77;;
16015;SDS011;8112;53.592;10.184;2023-04-05T07:16:51;8.17;;;6.37;;
16015;SDS011;8112;53.592;10.184;2023-04-05T07:21:54;14.67;;;6.63;;
16015;SDS011;8112;53.592;10.184;2023-04-05T07:26:56;9.77;;;6.40;;
16015;SDS011;8112;53.592;10.184;2023-04-05T07:31:58;7.47;;;6.10;;
16015;SDS011;8112;53.592;10.184;2023-04-05T07:37:01;9.87;;;6.10;;
16015;SDS011;8112;53.592;10.184;2023-04-05T07:42:05;13.37;;;7.00;;
16015;SDS011;8112;53.592;10.184;2023-04-05T07:47:07;13.63;;;7.37;;
16015;SDS011;8112;53.592;10.184;2023-04-05T07:52:10;10.40;;;6.07;;
16015;SDS011;8112;53.592;10.184;2023-04-05T07:57:15;10.60;;;5.97;;
16015;SDS011;8112;53.592;10.184;2023-04-05T08:02:17;9.43;;;6.57;;
16015;SDS011;8112;53.592;10.184;2023-04-05T08:07:21;8.40;;;5.67;;
16015;SDS011;8112;53.592;10.184;2023-04-05T08:12:23;10.83;;;6.00;;
16015;SDS011;8112;53.592;10.184;2023-04-05T08:17:25;9.07;;;5.57;;
16015;SDS011;8112;53.592;10.184;2023-04-05T08:22:29;6.73;;;5.03;;
16015;SDS011;8112;53.592;10.184;2023-04-05T08:27:31;9.43;;;5.47;;
16015;SDS011;8112;53.592;10.184;2023-04-05T08:32:32;7.90;;;5.10;;
16015;SDS011;8112;53.592;10.184;2023-04-05T08:37:36;8.30;;;5.17;;
16015;SDS011;8112;53.592;10.184;2023-04-05T08:42:40;11.13;;;5.90;;
16015;SDS011;8112;53.592;10.184;2023-04-05T08:47:46;12.53;;;5.40;;
16015;SDS011;8112;53.592;10.184;2023-04-05T08:52:53;8.80;;;5.37;;
16015;SDS011;8112;53.592;10.184;2023-04-05T08:57:56;9.33;;;4.60;;
16015;SDS011;8112;53.592;10.184;2023-04-05T09:03:03;6.40;;;4.70;;
16015;SDS011;8112;53.592;10.184;2023-04-05T09:08:08;9.33;;;5.03;;
16015;SDS011;8112;53.592;10.184;2023-04-05T09:13:10;6.77;;;3.80;;
16015;SDS011;8112;53.592;10.184;2023-04-05T09:18:12;5.50;;;4.40;;
16015;SDS011;8112;53.592;10.184;2023-04-05T09:23:15;6.50;;;4.17;;
16015;SDS011;8112;53.592;10.184;2023-04-05T09:28:17;5.03;;;3.60;;
16015;SDS011;8112;53.592;10.184;2023-04-05T09:33:19;5.27;;;3.73;;
16015;SDS011;8112;53.592;10.184;2023-04-05T09:38:22;4.47;;;3.23;;
16015;SDS011;8112;53.592;10.184;2023-04-05T09:43:42;4.97;;;3.10;;
16015;SDS011;8112;53.592;10.184;2023-04-05T09:48:44;5.27;;;3.70;;
16015;SDS011;8112;53.592;10.184;2023-04-05T09:53:57;5.27;;;3.57;;
16015;SDS011;8112;53.592;10.184;2023-04-05T09:59:00;6.20;;;3.70;;
16015;SDS011;8112;53.592;10.184;2023-04-05T10:04:03;4.37;;;3.43;;
16015;SDS011;8112;53.592;10.184;2023-04-05T10:09:07;5.17;;;2.83;;
16015;SDS011;8112;53.592;10.184;2023-04-05T10:14:10;6.10;;;3.33;;
16015;SDS011;8112;53.592;10.184;2023-04-05T10:19:14;4.57;;;3.20;;
16015;SDS011;8112;53.592;10.184;2023-04-05T10:24:27;8.80;;;3.50;;
16015;SDS011;8112;53.592;10.184;2023-04-05T10:29:37;4.47;;;3.30;;
16015;SDS011;8112;53.592;10.184;2023-04-05T10:34:50;5.60;;;3.43;;
16015;SDS011;8112;53.592;10.184;2023-04-05T10:39:59;6.07;;;3.77;;
16015;SDS011;8112;53.592;10.184;2023-04-05T10:45:04;6.43;;;3.27;;
16015;SDS011;8112;53.592;10.184;2023-04-05T10:50:11;4.03;;;3.30;;
16015;SDS011;8112;53.592;10.184;2023-04-05T10:55:19;4.70;;;3.00;;
16015;SDS011;8112;53.592;10.184;2023-04-05T11:00:21;3.83;;;3.07;;
16015;SDS011;8112;53.592;10.184;2023-04-05T11:05:30;4.03;;;3.13;;
16015;SDS011;8112;53.592;10.184;2023-04-05T11:10:35;5.90;;;4.37;;
16015;SDS011;8112;53.592;10.184;2023-04-05T11:15:38;7.37;;;3.07;;
16015;SDS011;8112;53.592;10.184;2023-04-05T11:20:44;5.67;;;3.83;;
16015;SDS011;8112;53.592;10.184;2023-04-05T11:25:50;4.47;;;3.67;;
16015;SDS011;8112;53.592;10.184;2023-04-05T11:30:53;5.93;;;3.73;;
16015;SDS011;8112;53.592;10.184;2023-04-05T11:36:01;6.03;;;3.67;;
16015;SDS011;8112;53.592;10.184;2023-04-05T11:41:10;5.07;;;3.67;;
16015;SDS011;8112;53.592;10.184;2023-04-05T11:46:16;5.00;;;3.63;;
16015;SDS011;8112;53.592;10.184;2023-04-05T11:51:19;11.30;;;4.07;;
16015;SDS011;8112;53.592;10.184;2023-04-05T11:56:24;5.97;;;3.47;;
16015;SDS011;8112;53.592;10.184;2023-04-05T12:01:26;5.87;;;3.33;;
16015;SDS011;8112;53.592;10.184;2023-04-05T12:06:27;4.50;;;3.40;;
16015;SDS011;8112;53.592;10.184;2023-04-05T12:11:31;4.00;;;3.07;;
16015;SDS011;8112;53.592;10.184;2023-04-05T12:16:32;3.07;;;2.57;;
16015;SDS011;8112;53.592;10.184;2023-04-05T12:21:34;6.40;;;3.23;;
16015;SDS011;8112;53.592;10.184;2023-04-05T12:26:38;3.87;;;3.00;;
16015;SDS011;8112;53.592;10.184;2023-04-05T12:31:40;4.67;;;3.13;;
16015;SDS011;8112;53.592;10.184;2023-04-05T12:36:43;2.60;;;2.40;;
16015;SDS011;8112;53.592;10.184;2023-04-05T12:41:56;4.63;;;2.53;;
16015;SDS011;8112;53.592;10.184;2023-04-05T12:46:59;4.23;;;3.07;;
16015;SDS011;8112;53.592;10.184;2023-04-05T12:52:02;4.07;;;2.60;;
16015;SDS011;8112;53.592;10.184;2023-04-05T12:57:05;4.57;;;2.53;;
16015;SDS011;8112;53.592;10.184;2023-04-05T13:02:12;4.03;;;2.67;;
16015;SDS011;8112;53.592;10.184;2023-04-05T13:07:14;4.43;;;3.27;;
16015;SDS011;8112;53.592;10.184;2023-04-05T13:12:17;4.17;;;2.90;;
16015;SDS011;8112;53.592;10.184;2023-04-05T13:17:19;5.07;;;3.03;;
16015;SDS011;8112;53.592;10.184;2023-04-05T13:22:21;3.33;;;2.63;;
16015;SDS011;8112;53.592;10.184;2023-04-05T13:27:24;4.30;;;3.23;;
16015;SDS011;8112;53.592;10.184;2023-04-05T13:32:26;4.97;;;3.23;;
16015;SDS011;8112;53.592;10.184;2023-04-05T13:37:27;4.13;;;2.70;;
16015;SDS011;8112;53.592;10.184;2023-04-05T13:42:30;3.77;;;2.97;;
16015;SDS011;8112;53.592;10.184;2023-04-05T13:47:32;3.37;;;3.00;;
16015;SDS011;8112;53.592;10.184;2023-04-05T13:52:34;3.70;;;2.90;;
16015;SDS011;8112;53.592;10.184;2023-04-05T13:57:37;3.30;;;2.60;;
16015;SDS011;8112;53.592;10.184;2023-04-05T14:02:39;4.57;;;2.70;;
16015;SDS011;8112;53.592;10.184;2023-04-05T14:07:41;4.47;;;3.17;;
16015;SDS011;8112;53.592;10.184;2023-04-05T14:12:44;4.97;;;2.43;;
16015;SDS011;8112;53.592;10.184;2023-04-05T14:17:46;4.30;;;3.00;;
16015;SDS011;8112;53.592;10.184;2023-04-05T14:22:48;3.30;;;2.80;;
16015;SDS011;8112;53.592;10.184;2023-04-05T14:27:51;4.07;;;2.53;;
16015;SDS011;8112;53.592;10.184;2023-04-05T14:32:53;4.27;;;2.70;;
16015;SDS011;8112;53.592;10.184;2023-04-05T14:37:55;3.53;;;2.50;;
16015;SDS011;8112;53.592;10.184;2023-04-05T14:42:58;3.60;;;2.43;;
16015;SDS011;8112;53.592;10.184;2023-04-05T14:48:00;2.43;;;2.23;;
16015;SDS011;8112;53.592;10.184;2023-04-05T14:53:01;3.30;;;2.50;;
16015;SDS011;8112;53.592;10.184;2023-04-05T14:58:05;4.27;;;2.50;;
16015;SDS011;8112;53.592;10.184;2023-04-05T15:03:06;3.57;;;2.50;;
16015;SDS011;8112;53.592;10.184;2023-04-05T15:08:09;2.73;;;2.23;;
16015;SDS011;8112;53.592;10.184;2023-04-05T15:13:12;3.10;;;2.30;;
16015;SDS011;8112;53.592;10.184;2023-04-05T15:18:14;3.43;;;2.27;;
16015;SDS011;8112;53.592;10.184;2023-04-05T15:23:15;4.70;;;2.37;;
16015;SDS011;8112;53.592;10.184;2023-04-05T15:28:19;3.63;;;2.50;;
16015;SDS011;8112;53.592;10.184;2023-04-05T15:33:20;2.63;;;2.43;;
16015;SDS011;8112;53.592;10.184;2023-04-05T15:38:22;4.13;;;2.53;;
16015;SDS011;8112;53.592;10.184;2023-04-05T15:43:25;2.93;;;2.30;;
16015;SDS011;8112;53.592;10.184;2023-04-05T15:48:28;2.77;;;2.33;;
16015;SDS011;8112;53.592;10.184;2023-04-05T15:53:29;3.67;;;3.23;;
16015;SDS011;8112;53.592;10.184;2023-04-05T15:58:33;3.43;;;2.60;;
16015;SDS011;8112;53.592;10.184;2023-04-05T16:03:36;3.17;;;2.60;;
16015;SDS011;8112;53.592;10.184;2023-04-05T16:08:38;4.23;;;2.70;;
16015;SDS011;8112;53.592;10.184;2023-04-05T16:13:41;2.50;;;2.30;;
16015;SDS011;8112;53.592;10.184;2023-04-05T16:18:43;4.30;;;3.10;;
16015;SDS011;8112;53.592;10.184;2023-04-05T16:23:45;3.53;;;2.93;;
16015;SDS011;8112;53.592;10.184;2023-04-05T16:28:48;2.80;;;2.50;;
16015;SDS011;8112;53.592;10.184;2023-04-05T16:33:49;3.80;;;2.70;;
16015;SDS011;8112;53.592;10.184;2023-04-05T16:38:52;3.87;;;2.47;;
16015;SDS011;8112;53.592;10.184;2023-04-05T16:43:55;3.50;;;2.50;;
16015;SDS011;8112;53.592;10.184;2023-04-05T16:48:57;4.13;;;2.20;;
16015;SDS011;8112;53.592;10.184;2023-04-05T16:53:59;2.37;;;1.57;;
16015;SDS011;8112;53.592;10.184;2023-04-05T16:59:03;1.73;;;1.63;;
16015;SDS011;8112;53.592;10.184;2023-04-05T17:04:04;1.97;;;1.43;;
16015;SDS011;8112;53.592;10.184;2023-04-05T17:09:06;3.37;;;2.10;;
16015;SDS011;8112;53.592;10.184;2023-04-05T17:14:09;2.17;;;1.60;;
16015;SDS011;8112;53.592;10.184;2023-04-05T17:19:11;2.60;;;1.60;;
16015;SDS011;8112;53.592;10.184;2023-04-05T17:24:13;1.97;;;1.37;;
16015;SDS011;8112;53.592;10.184;2023-04-05T17:29:20;2.30;;;1.43;;
16015;SDS011;8112;53.592;10.184;2023-04-05T17:34:22;1.90;;;1.70;;
16015;SDS011;8112;53.592;10.184;2023-04-05T17:39:24;2.13;;;1.50;;
16015;SDS011;8112;53.592;10.184;2023-04-05T17:44:27;2.60;;;1.83;;
16015;SDS011;8112;53.592;10.184;2023-04-05T17:49:29;1.77;;;1.40;;
16015;SDS011;8112;53.592;10.184;2023-04-05T17:54:31;1.87;;;1.60;;
16015;SDS011;8112;53.592;10.184;2023-04-05T17:59:37;2.77;;;1.90;;
16015;SDS011;8112;53.592;10.184;2023-04-05T18:04:41;3.07;;;1.90;;
16015;SDS011;8112;53.592;10.184;2023-04-05T18:09:45;3.60;;;2.90;;
16015;SDS011;8112;53.592;10.184;2023-04-05T18:14:49;3.53;;;3.07;;
16015;SDS011;8112;53.592;10.184;2023-04-05T18:19:51;4.40;;;2.27;;
16015;SDS011;8112;53.592;10.184;2023-04-05T18:24:53;4.93;;;2.23;;
16015;SDS011;8112;53.592;10.184;2023-04-05T18:29:56;2.60;;;2.00;;
16015;SDS011;8112;53.592;10.184;2023-04-05T18:34:58;2.20;;;2.00;;
16015;SDS011;8112;53.592;10.184;2023-04-05T18:39:59;2.03;;;1.90;;
16015;SDS011;8112;53.592;10.184;2023-04-05T18:45:03;3.80;;;1.90;;
16015;SDS011;8112;53.592;10.184;2023-04-05T18:50:06;3.70;;;2.50;;
16015;SDS011;8112;53.592;10.184;2023-04-05T18:55:09;5.57;;;3.47;;
16015;SDS011;8112;53.592;10.184;2023-04-05T19:00:12;6.03;;;2.70;;
16015;SDS011;8112;53.592;10.184;2023-04-05T19:05:14;3.37;;;3.07;;
16015;SDS011;8112;53.592;10.184;2023-04-05T19:10:16;5.27;;;2.70;;
16015;SDS011;8112;53.592;10.184;2023-04-05T19:15:19;2.57;;;2.30;;
16015;SDS011;8112;53.592;10.184;2023-04-05T19:20:21;4.53;;;2.77;;
16015;SDS011;8112;53.592;10.184;2023-04-05T19:25:23;4.17;;;3.20;;
16015;SDS011;8112;53.592;10.184;2023-04-05T19:30:26;3.23;;;2.87;;
16015;SDS011;8112;53.592;10.184;2023-04-05T19:35:29;4.50;;;2.83;;
16015;SDS011;8112;53.592;10.184;2023-04-05T19:40:31;6.87;;;3.27;;
16015;SDS011;8112;53.592;10.184;2023-04-05T19:45:34;5.50;;;3.37;;
16015;SDS011;8112;53.592;10.184;2023-04-05T19:50:46;4.70;;;3.10;;
16015;SDS011;8112;53.592;10.184;2023-04-05T19:55:49;3.23;;;2.77;;
16015;SDS011;8112;53.592;10.184;2023-04-05T20:00:52;3.10;;;2.63;;
16015;SDS011;8112;53.592;10.184;2023-04-05T20:06:01;5.30;;;2.90;;
16015;SDS011;8112;53.592;10.184;2023-04-05T20:11:09;3.07;;;2.77;;
16015;SDS011;8112;53.592;10.184;2023-04-05T20:16:13;2.90;;;2.60;;
16015;SDS011;8112;53.592;10.184;2023-04-05T20:21:16;3.30;;;3.00;;
16015;SDS011;8112;53.592;10.184;2023-04-05T20:26:23;3.90;;;2.93;;
16015;SDS011;8112;53.592;10.184;2023-04-05T20:31:28;4.10;;;3.27;;
16015;SDS011;8112;53.592;10.184;2023-04-05T20:36:31;3.90;;;3.07;;
16015;SDS011;8112;53.592;10.184;2023-04-05T20:41:34;3.63;;;3.10;;
16015;SDS011;8112;53.592;10.184;2023-04-05T20:46:37;3.97;;;2.90;;
16015;SDS011;8112;53.592;10.184;2023-04-05T20:51:40;3.77;;;3.23;;
16015;SDS011;8112;53.592;10.184;2023-04-05T20:56:41;3.23;;;2.93;;
16015;SDS011;8112;53.592;10.184;2023-04-05T21:01:45;3.33;;;2.87;;
16015;SDS011;8112;53.592;10.184;2023-04-05T21:06:48;3.57;;;3.13;;
16015;SDS011;8112;53.592;10.184;2023-04-05T21:11:49;3.53;;;3.20;;
16015;SDS011;8112;53.592;10.184;2023-04-05T21:16:53;3.87;;;3.37;;
16015;SDS011;8112;53.592;10.184;2023-04-05T21:21:54;5.17;;;2.90;;
16015;SDS011;8112;53.592;10.184;2023-04-05T21:26:56;3.53;;;3.17;;
16015;SDS011;8112;53.592;10.184;2023-04-05T21:31:59;7.03;;;3.90;;
16015;SDS011;8112;53.592;10.184;2023-04-05T21:37:01;5.23;;;4.40;;
16015;SDS011;8112;53.592;10.184;2023-04-05T21:42:03;6.57;;;4.93;;
16015;SDS011;8112;53.592;10.184;2023-04-05T21:47:06;7.10;;;5.30;;
16015;SDS011;8112;53.592;10.184;2023-04-05T21:52:08;6.63;;;4.60;;
16015;SDS011;8112;53.592;10.184;2023-04-05T21:57:10;4.70;;;4.07;;
16015;SDS011;8112;53.592;10.184;2023-04-05T22:02:13;4.57;;;3.47;;
16015;SDS011;8112;53.592;10.184;2023-04-05T22:07:15;5.60;;;3.80;;
16015;SDS011;8112;53.592;10.184;2023-04-05T22:12:17;4.33;;;3.50;;
16015;SDS011;8112;53.592;10.184;2023-04-05T22:17:21;3.77;;;3.37;;
16015;SDS011;8112;53.592;10.184;2023-04-05T22:22:23;4.77;;;3.70;;
16015;SDS011;8112;53.592;10.184;2023-04-05T22:27:25;5.77;;;4.50;;
16015;SDS011;8112;53.592;10.184;2023-04-05T22:32:29;3.77;;;2.90;;
16015;SDS011;8112;53.592;10.184;2023-04-05T22:37:31;4.77;;;3.23;;
16015;SDS011;8112;53.592;10.184;2023-04-05T22:42:35;5.80;;;3.43;;
16015;SDS011;8112;53.592;10.184;2023-04-05T22:47:42;5.53;;;3.60;;
16015;SDS011;8112;53.592;10.184;2023-04-05T22:52:44;4.50;;;3.63;;
16015;SDS011;8112;53.592;10.184;2023-04-05T22:57:46;3.53;;;3.17;;
16015;SDS011;8112;53.592;10.184;2023-04-05T23:02:50;4.97;;;3.50;;
16015;SDS011;8112;53.592;10.184;2023-04-05T23:07:51;3.80;;;3.03;;
16015;SDS011;8112;53.592;10.184;2023-04-05T23:12:53;4.37;;;3.10;;
16015;SDS011;8112;53.592;10.184;2023-04-05T23:17:56;4.40;;;3.40;;
16015;SDS011;8112;53.592;10.184;2023-04-05T23:22:58;4.17;;;3.57;;
16015;SDS011;8112;53.592;10.184;2023-04-05T23:28:00;4.13;;;3.30;;
16015;SDS011;8112;53.592;10.184;2023-04-05T23:33:03;3.83;;;3.00;;
16015;SDS011;8112;53.592;10.184;2023-04-05T23:38:05;4.33;;;3.10;;
16015;SDS011;8112;53.592;10.184;2023-04-05T23:43:07;3.37;;;2.90;;
16015;SDS011;8112;53.592;10.184;2023-04-05T23:48:10;5.90;;;3.43;;
16015;SDS011;8112;53.592;10.184;2023-04-05T23:53:12;5.67;;;3.77;;
16015;SDS011;8112;53.592;10.184;2023-04-05T23:58:14;6.63;;;4.13;;
